Time;durP1;ratioP1;P1;durP2;ratioP2;P2;SDS_P1;SDS_P2;PMS_P1;PMS_P2;Temp;Humidity;BMP_temperature;BMP_pressure;BME280_temperature;BME280_humidity;BME280_pressure;Samples;Min_cycle;Max_cycle;Signal;HPM_P1;HPM_P2
2023/10/12 00:03:12;;;;;;;32.85;19.45;;;;;;;;;;10485726;28;20048;-80
2023/10/12 00:08:33;;;;;;;29.13;15.27;;;;;;;;;;10484468;28;20029;-80
2023/10/12 00:13:41;;;;;;;27.38;12.80;;;;;;;;;;10485696;28;20840;-80
2023/10/12 00:18:45;;;;;;;21.13;9.88;;;;;;;;;;10486435;28;20495;-81
2023/10/12 00:23:47;;;;;;;19.27;8.77;;;;;;;;;;10486018;28;20545;-80
2023/10/12 00:28:50;;;;;;;17.42;9.52;;;;;;;;;;10482775;28;20392;-79
2023/10/12 00:33:51;;;;;;;18.88;9.18;;;;;;;;;;10486435;28;20032;-80
2023/10/12 00:38:56;;;;;;;22.25;9.45;;;;;;;;;;10472676;28;20036;-80
2023/10/12 00:49:17;;;;;;;18.58;10.27;;;;;;;;;;10476899;28;20407;-81
2023/10/12 00:54:26;;;;;;;19.77;10.48;;;;;;;;;;10484040;28;20431;-81
2023/10/12 00:59:27;;;;;;;14.00;8.50;;;;;;;;;;10475308;28;20021;-80
2023/10/12 01:04:30;;;;;;;19.92;8.55;;;;;;;;;;10472947;28;20632;-80
2023/10/12 01:09:39;;;;;;;12.93;8.25;;;;;;;;;;10485637;28;20025;-80
2023/10/12 01:14:43;;;;;;;18.08;7.95;;;;;;;;;;10467878;28;20051;-81
2023/10/12 01:19:47;;;;;;;14.40;7.25;;;;;;;;;;10483770;28;20056;-80
2023/10/12 01:30:13;;;;;;;13.40;6.60;;;;;;;;;;10455250;28;20058;-79
2023/10/12 01:35:16;;;;;;;15.40;7.18;;;;;;;;;;10469959;28;20036;-80
2023/10/12 01:40:25;;;;;;;13.00;7.43;;;;;;;;;;10475607;28;20035;-80
2023/10/12 01:50:28;;;;;;;11.80;6.63;;;;;;;;;;10475623;28;20052;-80
2023/10/12 01:55:30;;;;;;;11.75;6.82;;;;;;;;;;10474230;28;20715;-82
2023/10/12 02:00:41;;;;;;;12.80;6.35;;;;;;;;;;10484930;28;20028;-81
2023/10/12 02:05:47;;;;;;;12.35;7.05;;;;;;;;;;10471324;28;20068;-80
2023/10/12 02:11:05;;;;;;;14.32;7.30;;;;;;;;;;10484662;28;20041;-80
2023/10/12 02:16:07;;;;;;;13.95;7.50;;;;;;;;;;10468858;28;20036;-82
2023/10/12 02:21:11;;;;;;;15.32;6.75;;;;;;;;;;10484650;28;20031;-80
2023/10/12 02:27:00;;;;;;;13.80;7.05;;;;;;;;;;10491135;28;20109;-80
2023/10/12 02:31:34;;;;;;;14.60;7.18;;;;;;;;;;10479077;28;20044;-80
2023/10/12 02:36:36;;;;;;;17.85;7.90;;;;;;;;;;10480130;28;20492;-81
2023/10/12 02:41:37;;;;;;;15.13;7.82;;;;;;;;;;10489926;28;20220;-81
2023/10/12 02:47:01;;;;;;;18.23;7.93;;;;;;;;;;10490638;28;20103;-80
2023/10/12 02:52:08;;;;;;;15.07;7.70;;;;;;;;;;10485369;28;20495;-80
2023/10/12 02:57:16;;;;;;;15.47;7.80;;;;;;;;;;10477739;28;20059;-80
2023/10/12 03:02:20;;;;;;;17.55;7.97;;;;;;;;;;10490276;28;20245;-81
2023/10/12 03:07:24;;;;;;;12.27;7.90;;;;;;;;;;10477023;28;20596;-83
2023/10/12 03:12:25;;;;;;;14.50;7.15;;;;;;;;;;10485391;28;20040;-82
2023/10/12 03:17:27;;;;;;;12.52;7.65;;;;;;;;;;10487169;28;20032;-82
2023/10/12 03:22:35;;;;;;;14.60;7.75;;;;;;;;;;10471808;28;20505;-80
2023/10/12 03:27:36;;;;;;;14.70;7.15;;;;;;;;;;10479493;28;20033;-82
2023/10/12 03:32:37;;;;;;;14.70;7.18;;;;;;;;;;10458968;28;20519;-80
2023/10/12 03:38:12;;;;;;;19.90;8.40;;;;;;;;;;10475112;28;20039;-82
2023/10/12 03:43:10;;;;;;;13.07;7.10;;;;;;;;;;10479446;28;20037;-80
2023/10/12 03:48:24;;;;;;;10.60;6.63;;;;;;;;;;10473329;28;20032;-81
2023/10/12 03:53:31;;;;;;;15.60;6.80;;;;;;;;;;10488324;28;20049;-79
2023/10/12 03:58:38;;;;;;;15.85;6.95;;;;;;;;;;10481005;28;20556;-80
2023/10/12 04:03:42;;;;;;;21.55;7.68;;;;;;;;;;10479103;28;20066;-82
2023/10/12 04:08:51;;;;;;;18.55;7.25;;;;;;;;;;10483069;28;20040;-82
2023/10/12 04:29:21;;;;;;;17.98;7.80;;;;;;;;;;10474891;28;20032;-82
2023/10/12 04:34:34;;;;;;;14.55;7.40;;;;;;;;;;10474217;28;20060;-82
2023/10/12 04:39:48;;;;;;;10.05;6.38;;;;;;;;;;10466915;28;20049;-80
2023/10/12 04:45:23;;;;;;;17.60;6.70;;;;;;;;;;10485245;28;20047;-81
2023/10/12 04:50:42;;;;;;;17.02;6.53;;;;;;;;;;10484890;28;20082;-81
2023/10/12 04:55:47;;;;;;;22.90;7.53;;;;;;;;;;10479943;28;20041;-84
2023/10/12 05:00:48;;;;;;;14.10;6.97;;;;;;;;;;10482614;28;20067;-84
2023/10/12 05:05:56;;;;;;;15.73;7.25;;;;;;;;;;10471670;28;20088;-82
2023/10/12 05:10:58;;;;;;;13.43;7.30;;;;;;;;;;10465952;28;20044;-82
2023/10/12 05:16:04;;;;;;;15.65;7.88;;;;;;;;;;10483577;28;20028;-81
2023/10/12 05:21:08;;;;;;;14.73;7.50;;;;;;;;;;10458290;28;20431;-82
2023/10/12 05:26:09;;;;;;;20.80;7.40;;;;;;;;;;10484812;28;20303;-83
2023/10/12 05:31:10;;;;;;;19.50;7.95;;;;;;;;;;10457488;28;20072;-80
2023/10/12 05:36:20;;;;;;;15.35;7.53;;;;;;;;;;10482500;28;20400;-80
2023/10/12 05:41:23;;;;;;;13.25;6.35;;;;;;;;;;10474177;28;20043;-83
2023/10/12 05:46:29;;;;;;;16.33;7.00;;;;;;;;;;10483186;28;20031;-81
2023/10/12 05:51:30;;;;;;;17.63;7.63;;;;;;;;;;10471423;28;20664;-82
2023/10/12 05:56:34;;;;;;;13.68;6.50;;;;;;;;;;10488932;28;20085;-81
2023/10/12 06:01:36;;;;;;;18.05;6.32;;;;;;;;;;10482287;28;20123;-83
2023/10/12 06:06:41;;;;;;;10.98;5.90;;;;;;;;;;10486769;28;20045;-86
2023/10/12 06:11:44;;;;;;;12.00;6.18;;;;;;;;;;10484207;28;20043;-83
2023/10/12 06:16:45;;;;;;;14.98;6.40;;;;;;;;;;10491128;28;20036;-82
2023/10/12 06:21:50;;;;;;;11.50;6.15;;;;;;;;;;10492181;28;20871;-79
2023/10/12 06:26:51;;;;;;;;;;;;;;;;;;10477639;28;20047;-80
2023/10/12 06:31:54;;;;;;;15.50;7.40;;;;;;;;;;10459215;28;20272;-82
2023/10/12 06:37:11;;;;;;;15.43;7.05;;;;;;;;;;10478132;28;20060;-83
2023/10/12 06:42:26;;;;;;;18.17;8.18;;;;;;;;;;10490910;28;20106;-81
2023/10/12 06:47:41;;;;;;;13.20;7.13;;;;;;;;;;10490713;28;20021;-81
2023/10/12 06:52:43;;;;;;;18.97;7.27;;;;;;;;;;10490266;28;20116;-81
2023/10/12 06:57:53;;;;;;;16.63;6.68;;;;;;;;;;10489678;28;20035;-81
2023/10/12 07:02:53;;;;;;;16.73;6.97;;;;;;;;;;10490311;28;20037;-80
2023/10/12 07:07:55;;;;;;;13.57;6.30;;;;;;;;;;10489266;28;20060;-81
2023/10/12 07:12:59;;;;;;;14.68;5.75;;;;;;;;;;10490257;28;20123;-81
2023/10/12 07:18:06;;;;;;;15.00;6.10;;;;;;;;;;10488992;28;20039;-80
2023/10/12 07:23:20;;;;;;;15.82;6.47;;;;;;;;;;10488515;28;20557;-82
2023/10/12 07:28:33;;;;;;;16.27;6.85;;;;;;;;;;10488735;28;20024;-81
2023/10/12 07:33:34;;;;;;;14.80;6.75;;;;;;;;;;10488800;28;20035;-80
2023/10/12 07:38:35;;;;;;;17.15;5.70;;;;;;;;;;10489176;28;20044;-81
2023/10/12 07:43:38;;;;;;;15.13;6.03;;;;;;;;;;10489094;28;20384;-81
2023/10/12 07:48:43;;;;;;;14.32;6.35;;;;;;;;;;10488471;28;20034;-82
2023/10/12 07:53:44;;;;;;;;;;;;;;;;;;10488690;28;20207;-82
2023/10/12 07:58:58;;;;;;;18.67;6.50;;;;;;;;;;10487116;28;19919;-80
2023/10/12 08:03:59;;;;;;;13.82;6.72;;;;;;;;;;10486447;28;20052;-81
2023/10/12 08:09:10;;;;;;;17.05;7.30;;;;;;;;;;10486409;28;20044;-81
2023/10/12 08:19:28;;;;;;;18.98;8.48;;;;;;;;;;10486449;28;20033;-84
2023/10/12 08:24:36;;;;;;;17.20;7.68;;;;;;;;;;10486828;28;20035;-81
2023/10/12 08:44:58;;;;;;;11.43;6.20;;;;;;;;;;10486162;28;20036;-81
2023/10/12 08:55:11;;;;;;;14.60;6.43;;;;;;;;;;10485089;28;20041;-81
2023/10/12 09:05:29;;;;;;;15.93;7.55;;;;;;;;;;10483876;28;20171;-80
2023/10/12 09:10:48;;;;;;;16.95;8.60;;;;;;;;;;10485281;28;20465;-81
2023/10/12 09:15:54;;;;;;;16.10;6.32;;;;;;;;;;10474110;28;20484;-81
2023/10/12 09:31:14;;;;;;;11.93;5.35;;;;;;;;;;10493327;28;20085;-81
2023/10/12 09:36:15;;;;;;;13.48;5.30;;;;;;;;;;10492836;28;20408;-82
2023/10/12 09:41:17;;;;;;;19.70;5.57;;;;;;;;;;10493494;28;20058;-81
2023/10/12 09:46:22;;;;;;;13.70;5.15;;;;;;;;;;10492628;28;20087;-81
2023/10/12 09:51:25;;;;;;;12.82;5.68;;;;;;;;;;10492378;28;20028;-81
2023/10/12 09:56:44;;;;;;;11.98;6.18;;;;;;;;;;10492059;28;20452;-81
2023/10/12 10:01:49;;;;;;;13.38;6.22;;;;;;;;;;10492051;28;20411;-82
2023/10/12 10:12:19;;;;;;;17.10;5.55;;;;;;;;;;10491167;28;20648;-83
2023/10/12 10:17:46;;;;;;;13.65;6.03;;;;;;;;;;10491173;28;20113;-80
2023/10/12 10:22:56;;;;;;;13.40;5.93;;;;;;;;;;10491048;28;20021;-82
2023/10/12 10:27:57;;;;;;;10.90;5.60;;;;;;;;;;10490963;28;20079;-82
2023/10/12 10:33:20;;;;;;;14.00;5.50;;;;;;;;;;10490268;28;20040;-81
2023/10/12 10:38:21;;;;;;;16.92;6.25;;;;;;;;;;10477030;28;20414;-81
2023/10/12 10:43:24;;;;;;;10.90;5.80;;;;;;;;;;10490165;28;20034;-81
2023/10/12 10:48:27;;;;;;;14.63;6.38;;;;;;;;;;10485225;28;20431;-82
2023/10/12 10:53:31;;;;;;;16.17;7.43;;;;;;;;;;10481943;28;20043;-81
2023/10/12 10:58:32;;;;;;;12.18;5.70;;;;;;;;;;10471665;28;20037;-80
2023/10/12 11:03:34;;;;;;;13.25;6.00;;;;;;;;;;10476407;28;20040;-82
2023/10/12 11:08:35;;;;;;;17.45;6.78;;;;;;;;;;10488972;28;20414;-81
2023/10/12 11:13:40;;;;;;;14.45;5.57;;;;;;;;;;10489527;28;20032;-82
2023/10/12 11:18:48;;;;;;;13.30;5.43;;;;;;;;;;10488606;28;20641;-82
2023/10/12 11:23:51;;;;;;;11.85;5.88;;;;;;;;;;10489277;28;20036;-81
2023/10/12 11:29:12;;;;;;;13.75;6.07;;;;;;;;;;10488345;28;20033;-81
2023/10/12 11:34:23;;;;;;;20.58;6.03;;;;;;;;;;10488197;28;20020;-81
2023/10/12 11:39:28;;;;;;;18.33;7.45;;;;;;;;;;10487942;28;20103;-81
2023/10/12 11:44:33;;;;;;;20.42;9.05;;;;;;;;;;10487559;28;20075;-81
2023/10/12 11:49:49;;;;;;;17.75;6.85;;;;;;;;;;10463205;28;20349;-85
2023/10/12 11:54:50;;;;;;;14.15;5.43;;;;;;;;;;10474897;28;20035;-81
2023/10/12 11:59:51;;;;;;;14.60;5.50;;;;;;;;;;10486636;28;20020;-81
2023/10/12 12:04:52;;;;;;;15.30;5.65;;;;;;;;;;10485725;28;20421;-81
2023/10/12 12:10:00;;;;;;;12.50;5.55;;;;;;;;;;10486556;28;20028;-82
2023/10/12 12:15:01;;;;;;;10.25;4.60;;;;;;;;;;10486870;28;20558;-82
2023/10/12 12:20:07;;;;;;;10.07;5.38;;;;;;;;;;10486591;28;20020;-81
2023/10/12 12:25:17;;;;;;;11.60;4.97;;;;;;;;;;10486048;28;20395;-81
2023/10/12 12:30:30;;;;;;;13.35;5.22;;;;;;;;;;10485858;28;20024;-81
2023/10/12 12:35:31;;;;;;;15.38;5.50;;;;;;;;;;10486056;28;20031;-81
2023/10/12 12:40:38;;;;;;;13.50;5.28;;;;;;;;;;10485613;28;20036;-81
2023/10/12 12:45:48;;;;;;;14.13;5.78;;;;;;;;;;10485678;28;20045;-80
2023/10/12 12:50:49;;;;;;;13.50;5.97;;;;;;;;;;10460697;28;20052;-81
2023/10/12 12:55:56;;;;;;;15.02;5.70;;;;;;;;;;10483763;28;20039;-80
2023/10/12 13:01:00;;;;;;;14.10;5.57;;;;;;;;;;10485282;28;20040;-82
2023/10/12 13:06:10;;;;;;;11.30;5.85;;;;;;;;;;10483778;28;20677;-81
2023/10/12 13:11:11;;;;;;;19.33;7.30;;;;;;;;;;10485208;28;20541;-82
2023/10/12 13:16:12;;;;;;;23.98;8.32;;;;;;;;;;10485768;28;20430;-81
2023/10/12 13:21:17;;;;;;;14.38;6.03;;;;;;;;;;10484377;28;20054;-81
2023/10/12 13:26:19;;;;;;;16.70;7.40;;;;;;;;;;10484904;28;20047;-81
2023/10/12 13:31:23;;;;;;;17.98;9.48;;;;;;;;;;10483764;28;20404;-81
2023/10/12 13:36:25;;;;;;;21.67;10.80;;;;;;;;;;10484149;28;20975;-83
2023/10/12 13:41:26;;;;;;;36.53;17.23;;;;;;;;;;10483913;28;20103;-81
2023/10/12 13:46:30;;;;;;;17.25;8.65;;;;;;;;;;10484379;28;20509;-80
2023/10/12 13:51:31;;;;;;;11.35;7.28;;;;;;;;;;10483713;28;20033;-83
2023/10/12 13:56:34;;;;;;;18.48;9.35;;;;;;;;;;10483416;28;20052;-81
2023/10/12 14:01:36;;;;;;;19.15;9.93;;;;;;;;;;10483263;28;20028;-81
2023/10/12 14:06:37;;;;;;;18.00;8.45;;;;;;;;;;10484608;28;20407;-81
2023/10/12 14:11:39;;;;;;;20.95;10.13;;;;;;;;;;10490911;28;20037;-80
2023/10/12 14:16:40;;;;;;;24.90;12.15;;;;;;;;;;10491815;28;20085;-80
2023/10/12 14:21:41;;;;;;;24.67;13.23;;;;;;;;;;10490804;28;20104;-81
2023/10/12 14:26:44;;;;;;;26.60;14.25;;;;;;;;;;10491916;28;20043;-81
2023/10/12 14:31:46;;;;;;;60.05;28.30;;;;;;;;;;10491068;28;20029;-81
2023/10/12 14:36:47;;;;;;;85.60;54.95;;;;;;;;;;10490673;28;20029;-82
2023/10/12 14:41:48;;;;;;;39.75;21.15;;;;;;;;;;10490681;28;20511;-83
2023/10/12 14:46:50;;;;;;;35.95;20.13;;;;;;;;;;10484635;28;20070;-81
2023/10/12 14:51:51;;;;;;;43.88;24.05;;;;;;;;;;10489557;28;20036;-80
2023/10/12 14:56:53;;;;;;;40.88;23.40;;;;;;;;;;10489211;28;20025;-80
2023/10/12 15:01:54;;;;;;;38.33;21.40;;;;;;;;;;10489338;28;20143;-80
2023/10/12 15:06:56;;;;;;;45.33;29.15;;;;;;;;;;10486628;28;20139;-82
2023/10/12 15:12:00;;;;;;;37.20;23.00;;;;;;;;;;10489152;28;20082;-80
2023/10/12 15:17:03;;;;;;;59.17;39.22;;;;;;;;;;10488657;28;20028;-81
2023/10/12 15:22:06;;;;;;;63.38;41.20;;;;;;;;;;10488028;28;20352;-82
2023/10/12 15:27:07;;;;;;;142.18;102.22;;;;;;;;;;10488635;28;20082;-83
2023/10/12 15:32:08;;;;;;;91.38;63.65;;;;;;;;;;10470588;28;20086;-82
2023/10/12 15:37:09;;;;;;;32.65;20.48;;;;;;;;;;10488085;28;20039;-81
2023/10/12 15:42:11;;;;;;;34.00;17.92;;;;;;;;;;10488725;28;20040;-80
2023/10/12 15:47:12;;;;;;;36.95;22.45;;;;;;;;;;10488100;28;20043;-79
2023/10/12 15:52:14;;;;;;;32.25;18.25;;;;;;;;;;10487119;28;20048;-79
2023/10/12 15:57:15;;;;;;;30.55;17.00;;;;;;;;;;10487448;28;20681;-80
2023/10/12 16:02:16;;;;;;;59.53;30.73;;;;;;;;;;10487030;28;20033;-80
2023/10/12 16:07:17;;;;;;;29.80;19.30;;;;;;;;;;10485678;28;20052;-80
2023/10/12 16:12:18;;;;;;;30.33;16.23;;;;;;;;;;10482276;28;20135;-79
2023/10/12 16:17:21;;;;;;;34.83;17.33;;;;;;;;;;10476966;28;20044;-79
2023/10/12 16:22:23;;;;;;;39.95;17.15;;;;;;;;;;10463620;28;20063;-81
2023/10/12 16:27:24;;;;;;;37.00;18.52;;;;;;;;;;10472681;28;20707;-80
2023/10/12 16:32:25;;;;;;;30.40;15.73;;;;;;;;;;10474206;28;20396;-80
2023/10/12 16:37:26;;;;;;;30.13;16.55;;;;;;;;;;10486181;28;20031;-80
2023/10/12 16:42:27;;;;;;;31.55;16.83;;;;;;;;;;10485903;28;20028;-81
2023/10/12 16:47:28;;;;;;;36.88;19.25;;;;;;;;;;10471832;28;20036;-82
2023/10/12 16:52:30;;;;;;;32.58;18.20;;;;;;;;;;10485782;28;20036;-80
2023/10/12 16:57:31;;;;;;;32.45;16.75;;;;;;;;;;10485543;28;20553;-79
2023/10/12 17:02:33;;;;;;;31.13;15.98;;;;;;;;;;10469141;28;20036;-79
2023/10/12 17:07:36;;;;;;;28.95;15.05;;;;;;;;;;10483487;28;20492;-80
2023/10/12 17:12:37;;;;;;;29.92;14.82;;;;;;;;;;10484915;28;20032;-80
2023/10/12 17:17:38;;;;;;;34.38;15.70;;;;;;;;;;10484811;28;20586;-80
2023/10/12 17:22:39;;;;;;;27.92;15.00;;;;;;;;;;10485004;28;20032;-80
2023/10/12 17:27:41;;;;;;;32.67;15.02;;;;;;;;;;10484651;28;20024;-80
2023/10/12 17:32:48;;;;;;;27.48;15.05;;;;;;;;;;10469207;28;20503;-80
2023/10/12 17:37:50;;;;;;;31.30;16.20;;;;;;;;;;10498613;22;20065;-81
2023/10/12 17:42:51;;;;;;;35.30;16.45;;;;;;;;;;10488643;28;20017;-80
2023/10/12 17:47:52;;;;;;;28.48;16.48;;;;;;;;;;10492664;28;20043;-80
2023/10/12 17:52:55;;;;;;;29.40;17.00;;;;;;;;;;10474526;28;20050;-83
2023/10/12 17:57:58;;;;;;;27.42;15.35;;;;;;;;;;10492048;28;20027;-82
2023/10/12 18:03:00;;;;;;;33.95;18.50;;;;;;;;;;10475042;28;20053;-82
2023/10/12 18:08:04;;;;;;;29.42;16.02;;;;;;;;;;10486138;28;20032;-81
2023/10/12 18:13:05;;;;;;;38.05;17.23;;;;;;;;;;10482799;28;20033;-81
2023/10/12 18:18:06;;;;;;;28.70;15.77;;;;;;;;;;10481158;28;20624;-80
2023/10/12 18:23:07;;;;;;;32.55;17.67;;;;;;;;;;10479124;28;20030;-82
2023/10/12 18:28:08;;;;;;;40.42;21.38;;;;;;;;;;10484430;28;20025;-81
2023/10/12 18:33:10;;;;;;;31.25;17.95;;;;;;;;;;10417199;28;20040;-80
2023/10/12 18:38:11;;;;;;;25.20;13.95;;;;;;;;;;10486656;22;20080;-80
2023/10/12 18:43:12;;;;;;;31.70;17.38;;;;;;;;;;10490041;28;20035;-81
2023/10/12 18:48:13;;;;;;;38.10;17.58;;;;;;;;;;10468913;28;20067;-81
2023/10/12 18:53:14;;;;;;;43.58;19.27;;;;;;;;;;10486886;28;20036;-81
2023/10/12 18:58:22;;;;;;;57.88;22.88;;;;;;;;;;10490022;28;20067;-80
2023/10/12 19:03:23;;;;;;;64.47;24.70;;;;;;;;;;10473992;28;20025;-80
2023/10/12 19:08:25;;;;;;;60.42;23.73;;;;;;;;;;10462974;28;20043;-81
2023/10/12 19:13:27;;;;;;;55.30;23.80;;;;;;;;;;10489041;28;20024;-82
2023/10/12 19:18:32;;;;;;;46.03;22.45;;;;;;;;;;10466263;28;20524;-80
2023/10/12 19:23:35;;;;;;;47.58;23.42;;;;;;;;;;10468008;28;20112;-80
2023/10/12 19:28:36;;;;;;;39.83;20.25;;;;;;;;;;10479166;28;20094;-80
2023/10/12 19:33:38;;;;;;;38.70;17.85;;;;;;;;;;10482583;28;20464;-80
2023/10/12 19:38:40;;;;;;;34.55;16.75;;;;;;;;;;10405440;28;20543;-81
2023/10/12 19:43:41;;;;;;;31.65;16.92;;;;;;;;;;10405985;28;20056;-82
2023/10/12 19:48:44;;;;;;;32.90;15.95;;;;;;;;;;10404882;28;20044;-82
2023/10/12 19:53:47;;;;;;;28.30;15.10;;;;;;;;;;10405471;28;20035;-81
2023/10/12 19:58:51;;;;;;;30.70;14.23;;;;;;;;;;10403071;28;20037;-80
2023/10/12 20:03:55;;;;;;;29.05;14.57;;;;;;;;;;10400467;28;20048;-81
2023/10/12 20:08:56;;;;;;;30.30;13.85;;;;;;;;;;10404590;28;20033;-80
2023/10/12 20:13:57;;;;;;;27.20;14.23;;;;;;;;;;10403789;28;20412;-80
2023/10/12 20:18:58;;;;;;;29.70;13.75;;;;;;;;;;10404098;28;20030;-80
2023/10/12 20:23:59;;;;;;;27.98;14.02;;;;;;;;;;10403529;28;20033;-80
2023/10/12 20:29:02;;;;;;;29.05;14.63;;;;;;;;;;10400653;28;20029;-80
2023/10/12 20:34:04;;;;;;;30.85;16.48;;;;;;;;;;10404655;28;20057;-80
2023/10/12 20:39:08;;;;;;;26.45;15.57;;;;;;;;;;10484935;28;20033;-81
2023/10/12 20:44:09;;;;;;;29.52;14.98;;;;;;;;;;10485340;28;20024;-82
2023/10/12 20:49:10;;;;;;;29.65;16.92;;;;;;;;;;10481152;28;20032;-80
2023/10/12 20:54:13;;;;;;;32.70;17.02;;;;;;;;;;10485584;28;20513;-80
2023/10/12 20:59:17;;;;;;;25.33;14.85;;;;;;;;;;10482331;28;20115;-80
2023/10/12 21:04:20;;;;;;;28.25;13.10;;;;;;;;;;10478156;28;20086;-80
2023/10/12 21:09:21;;;;;;;24.33;13.25;;;;;;;;;;10480205;28;20020;-80
2023/10/12 21:14:34;;;;;;;26.02;14.38;;;;;;;;;;10484875;28;20622;-80
2023/10/12 21:19:45;;;;;;;28.48;17.13;;;;;;;;;;10485361;28;20024;-81
2023/10/12 21:24:54;;;;;;;33.13;19.00;;;;;;;;;;10484864;28;20068;-80
2023/10/12 21:29:58;;;;;;;41.13;20.98;;;;;;;;;;10497889;22;20052;-80
2023/10/12 21:35:00;;;;;;;28.60;16.40;;;;;;;;;;10484427;28;20035;-80
2023/10/12 21:45:24;;;;;;;31.30;19.15;;;;;;;;;;10484485;28;20040;-80
2023/10/12 21:50:26;;;;;;;39.63;23.88;;;;;;;;;;10484222;28;20491;-80
2023/10/12 21:55:27;;;;;;;43.58;24.00;;;;;;;;;;10483969;28;20129;-81
2023/10/12 22:05:39;;;;;;;42.22;23.92;;;;;;;;;;10484341;28;20419;-80
2023/10/12 22:10:40;;;;;;;36.40;20.05;;;;;;;;;;10483458;28;20044;-81
2023/10/12 22:16:01;;;;;;;44.97;23.65;;;;;;;;;;10483943;28;20039;-80
2023/10/12 22:21:03;;;;;;;24.77;16.45;;;;;;;;;;10482837;28;20032;-79
2023/10/12 22:26:04;;;;;;;36.83;21.42;;;;;;;;;;10483552;28;20033;-79
2023/10/12 22:31:07;;;;;;;32.47;19.50;;;;;;;;;;10488642;28;20156;-79
2023/10/12 22:36:08;;;;;;;32.85;19.83;;;;;;;;;;10490460;28;20085;-81
2023/10/12 22:41:09;;;;;;;40.70;22.20;;;;;;;;;;10491082;28;20089;-80
2023/10/12 22:46:13;;;;;;;30.60;17.17;;;;;;;;;;10490925;28;20492;-82
2023/10/12 22:51:14;;;;;;;39.72;20.63;;;;;;;;;;10463466;28;20036;-80
2023/10/12 22:56:15;;;;;;;35.83;20.88;;;;;;;;;;10489687;28;20040;-81
2023/10/12 23:01:16;;;;;;;39.78;22.40;;;;;;;;;;10489855;28;20051;-81
2023/10/12 23:06:17;;;;;;;29.73;15.60;;;;;;;;;;10490035;28;20464;-81
2023/10/12 23:11:33;;;;;;;42.53;22.30;;;;;;;;;;10489433;28;20028;-80
2023/10/12 23:16:50;;;;;;;30.83;18.30;;;;;;;;;;10489118;28;20082;-79
2023/10/12 23:21:51;;;;;;;31.83;20.35;;;;;;;;;;10489324;28;20094;-80
2023/10/12 23:26:52;;;;;;;47.38;25.67;;;;;;;;;;10487577;28;20029;-81
2023/10/12 23:31:55;;;;;;;35.33;21.70;;;;;;;;;;10488716;28;20033;-80
2023/10/12 23:36:58;;;;;;;41.30;22.60;;;;;;;;;;10488986;28;20061;-81
2023/10/12 23:42:07;;;;;;;22.38;13.38;;;;;;;;;;10500369;22;20028;-81
2023/10/12 23:47:17;;;;;;;27.02;16.95;;;;;;;;;;10446825;28;20465;-80
2023/10/12 23:52:27;;;;;;;26.25;15.27;;;;;;;;;;10428455;28;20037;-80
2023/10/12 23:57:28;;;;;;;32.70;18.20;;;;;;;;;;10446367;28;20025;-80
